Time;durP1;ratioP1;P1;durP2;ratioP2;P2;SDS_P1;SDS_P2;PMS_P1;PMS_P2;Temp;Humidity;BMP_temperature;BMP_pressure;BME280_temperature;BME280_humidity;BME280_pressure;Samples;Min_cycle;Max_cycle;Signal;HPM_P1;HPM_P2
2021/11/30 00:02:23;;;;;;;1999.90;999.90;;;;;;;;;;4991544;28;20168;-80
2021/11/30 00:04:48;;;;;;;735.70;106.10;;;;;;;;;;4962123;28;20177;-80
2021/11/30 00:07:14;;;;;;;1999.90;999.90;;;;;;;;;;5008858;28;20543;-80
2021/11/30 00:12:06;;;;;;;1999.90;999.90;;;;;;;;;;4975043;28;20055;-80
2021/11/30 00:14:32;;;;;;;1620.07;757.65;;;;;;;;;;4974810;28;20042;-80
2021/11/30 00:16:58;;;;;;;1069.72;308.00;;;;;;;;;;4959496;28;20042;-81
2021/11/30 00:19:24;;;;;;;1999.90;999.90;;;;;;;;;;4960716;28;20034;-80
2021/11/30 00:21:50;;;;;;;1999.90;999.90;;;;;;;;;;4978791;28;20030;-80
2021/11/30 00:24:15;;;;;;;1999.90;999.90;;;;;;;;;;4995028;28;20038;-80
2021/11/30 00:26:40;;;;;;;1999.90;999.90;;;;;;;;;;5011092;28;20041;-80
2021/11/30 00:29:06;;;;;;;1605.00;756.55;;;;;;;;;;5011006;28;20384;-80
2021/11/30 00:31:31;;;;;;;1999.90;999.90;;;;;;;;;;4994505;28;20041;-80
2021/11/30 00:33:57;;;;;;;1185.13;519.17;;;;;;;;;;4977872;28;20080;-80
2021/11/30 00:36:22;;;;;;;1999.90;999.90;;;;;;;;;;4978166;28;20396;-80
2021/11/30 00:38:48;;;;;;;1999.90;999.90;;;;;;;;;;4962271;28;20484;-80
2021/11/30 00:41:13;;;;;;;1999.90;999.90;;;;;;;;;;4961884;28;20080;-80
2021/11/30 00:43:40;;;;;;;1999.90;999.90;;;;;;;;;;4978000;28;20068;-80
2021/11/30 00:46:12;;;;;;;1999.90;999.90;;;;;;;;;;4962422;28;20116;-80
2021/11/30 00:48:38;;;;;;;1999.90;999.90;;;;;;;;;;4995397;28;20519;-80
2021/11/30 00:51:07;;;;;;;1999.90;999.90;;;;;;;;;;4993630;28;20017;-80
2021/11/30 00:53:33;;;;;;;1999.90;999.90;;;;;;;;;;4975498;28;20038;-80
2021/11/30 00:55:59;;;;;;;1999.90;999.90;;;;;;;;;;4958563;28;20105;-80
2021/11/30 00:58:24;;;;;;;1999.90;999.90;;;;;;;;;;4958577;28;20042;-80
2021/11/30 01:00:49;;;;;;;1999.90;999.90;;;;;;;;;;4990902;28;20041;-80
2021/11/30 01:03:15;;;;;;;1999.90;999.90;;;;;;;;;;4993815;28;20053;-80
2021/11/30 01:05:40;;;;;;;1999.90;999.90;;;;;;;;;;4993374;28;20044;-80
2021/11/30 01:08:06;;;;;;;1999.90;999.90;;;;;;;;;;4993340;28;20034;-80
2021/11/30 01:10:31;;;;;;;1999.90;999.90;;;;;;;;;;4977497;28;20030;-80
2021/11/30 01:12:57;;;;;;;1999.90;999.90;;;;;;;;;;4978349;28;20057;-80
2021/11/30 01:15:23;;;;;;;1999.90;999.90;;;;;;;;;;4977946;28;20381;-80
2021/11/30 01:17:48;;;;;;;1999.90;999.90;;;;;;;;;;4994109;28;20029;-80
2021/11/30 01:20:14;;;;;;;1161.18;511.38;;;;;;;;;;4993809;28;20022;-80
2021/11/30 01:22:40;;;;;;;1999.90;999.90;;;;;;;;;;4978363;28;20091;-80
2021/11/30 01:25:06;;;;;;;1999.90;999.90;;;;;;;;;;4993594;28;20036;-80
2021/11/30 01:27:31;;;;;;;1999.90;999.90;;;;;;;;;;4982164;28;20033;-80
2021/11/30 01:29:57;;;;;;;1999.90;999.90;;;;;;;;;;4981667;28;20044;-80
2021/11/30 01:32:22;;;;;;;1999.90;999.90;;;;;;;;;;4981902;28;20041;-80
2021/11/30 01:34:47;;;;;;;1999.90;999.90;;;;;;;;;;4997638;28;20041;-80
2021/11/30 01:37:15;;;;;;;1999.90;999.90;;;;;;;;;;5014227;28;20391;-80
2021/11/30 01:39:42;;;;;;;1999.90;999.90;;;;;;;;;;4997422;28;20030;-80
2021/11/30 01:42:08;;;;;;;1999.90;999.90;;;;;;;;;;4965227;28;20026;-80
2021/11/30 01:44:40;;;;;;;1999.90;999.90;;;;;;;;;;4997855;28;20044;-80
2021/11/30 01:47:23;;;;;;;1999.90;999.90;;;;;;;;;;4998757;28;20079;-80
2021/11/30 01:49:49;;;;;;;1999.90;999.90;;;;;;;;;;4999615;28;20407;-80
2021/11/30 01:52:15;;;;;;;1999.90;999.90;;;;;;;;;;4997742;28;20026;-81
2021/11/30 01:54:41;;;;;;;1999.90;999.90;;;;;;;;;;4996720;28;20117;-80
2021/11/30 01:57:07;;;;;;;1999.90;999.90;;;;;;;;;;5013822;28;20059;-80
2021/11/30 01:59:33;;;;;;;1999.90;999.90;;;;;;;;;;4965227;28;20109;-80
2021/11/30 02:01:58;;;;;;;1999.90;999.90;;;;;;;;;;4993546;28;20519;-80
2021/11/30 02:04:24;;;;;;;1173.03;513.53;;;;;;;;;;4977863;28;20554;-81
2021/11/30 02:06:49;;;;;;;1999.90;999.90;;;;;;;;;;4977634;28;20034;-80
2021/11/30 02:09:15;;;;;;;1999.90;999.90;;;;;;;;;;5012769;28;20087;-80
2021/11/30 02:11:40;;;;;;;1999.90;999.90;;;;;;;;;;4996977;28;20519;-80
2021/11/30 02:14:06;;;;;;;1999.90;999.90;;;;;;;;;;4964063;28;20037;-80
2021/11/30 02:16:31;;;;;;;1999.90;999.90;;;;;;;;;;4964671;28;20037;-80
2021/11/30 02:19:00;;;;;;;1999.90;999.90;;;;;;;;;;4997040;28;20026;-80
2021/11/30 02:21:28;;;;;;;1999.90;999.90;;;;;;;;;;4982308;28;20026;-80
2021/11/30 02:24:00;;;;;;;1128.22;511.27;;;;;;;;;;4965040;28;20030;-80
2021/11/30 02:26:26;;;;;;;1999.90;999.90;;;;;;;;;;4982189;28;20113;-80
2021/11/30 02:28:51;;;;;;;1999.90;999.90;;;;;;;;;;4977250;28;20101;-80
2021/11/30 02:31:18;;;;;;;1999.90;999.90;;;;;;;;;;4977217;28;20061;-80
2021/11/30 02:33:44;;;;;;;1999.90;999.90;;;;;;;;;;4960974;28;20457;-80
2021/11/30 02:36:20;;;;;;;1999.90;999.90;;;;;;;;;;4960899;28;20129;-80
2021/11/30 02:38:46;;;;;;;1999.90;999.90;;;;;;;;;;4992939;28;20100;-80
2021/11/30 02:41:11;;;;;;;1999.90;999.90;;;;;;;;;;4993324;28;20027;-80
2021/11/30 02:43:36;;;;;;;1999.90;999.90;;;;;;;;;;4988542;28;20404;-81
2021/11/30 02:46:02;;;;;;;1999.90;999.90;;;;;;;;;;4996353;28;20519;-80
2021/11/30 02:48:27;;;;;;;1999.90;999.90;;;;;;;;;;4996587;28;20121;-80
2021/11/30 02:50:53;;;;;;;1999.90;999.90;;;;;;;;;;4979987;28;20030;-80
2021/11/30 02:53:21;;;;;;;1999.90;999.90;;;;;;;;;;4996060;28;20599;-80
2021/11/30 02:55:46;;;;;;;1999.90;999.90;;;;;;;;;;4996609;28;20185;-81
2021/11/30 02:58:12;;;;;;;1999.90;999.90;;;;;;;;;;4996156;28;20026;-80
2021/11/30 03:00:37;;;;;;;1999.90;999.90;;;;;;;;;;4996708;28;20041;-80
2021/11/30 03:03:03;;;;;;;1999.90;999.90;;;;;;;;;;4976342;28;20125;-80
2021/11/30 03:05:28;;;;;;;1999.90;999.90;;;;;;;;;;4992853;28;20031;-80
2021/11/30 03:07:54;;;;;;;1999.90;999.90;;;;;;;;;;4979999;28;20076;-80
2021/11/30 03:10:19;;;;;;;1999.90;999.90;;;;;;;;;;4979330;28;20038;-80
2021/11/30 03:12:46;;;;;;;1527.50;752.97;;;;;;;;;;4996126;28;20030;-80
2021/11/30 03:15:14;;;;;;;1999.90;999.90;;;;;;;;;;4963484;28;20444;-80
2021/11/30 03:17:39;;;;;;;1999.90;999.90;;;;;;;;;;4980079;28;20029;-80
2021/11/30 03:20:05;;;;;;;1536.55;752.65;;;;;;;;;;4995829;28;20087;-81
2021/11/30 03:22:31;;;;;;;1999.90;999.90;;;;;;;;;;4996520;28;20034;-80
2021/11/30 03:24:56;;;;;;;1999.90;999.90;;;;;;;;;;4962691;28;20476;-80
2021/11/30 03:27:22;;;;;;;1999.90;999.90;;;;;;;;;;4979857;28;20030;-80
2021/11/30 03:29:47;;;;;;;1999.90;999.90;;;;;;;;;;4979062;28;20036;-80
2021/11/30 03:33:58;;;;;;;1999.90;999.90;;;;;;;;;;5011061;28;20574;-80
2021/11/30 03:35:01;;;;;;;1999.90;999.90;;;;;;;;;;4984616;28;20408;-80
2021/11/30 03:37:27;;;;;;;1999.90;999.90;;;;;;;;;;4995918;28;20048;-80
2021/11/30 03:39:52;;;;;;;1999.90;999.90;;;;;;;;;;4963154;28;20042;-80
2021/11/30 03:42:18;;;;;;;1999.90;999.90;;;;;;;;;;5012245;28;20435;-80
2021/11/30 03:44:43;;;;;;;1999.90;999.90;;;;;;;;;;5011704;28;20034;-80
2021/11/30 03:47:09;;;;;;;1999.90;999.90;;;;;;;;;;4978823;28;20110;-80
2021/11/30 03:49:34;;;;;;;1999.90;999.90;;;;;;;;;;4994413;28;20041;-80
2021/11/30 03:52:00;;;;;;;1999.90;999.90;;;;;;;;;;4963007;28;20034;-79
2021/11/30 03:54:25;;;;;;;1999.90;999.90;;;;;;;;;;4979155;28;20022;-80
2021/11/30 03:56:51;;;;;;;1999.90;999.90;;;;;;;;;;4962737;28;20092;-80
2021/11/30 03:59:16;;;;;;;1999.90;999.90;;;;;;;;;;4979085;28;20476;-80
2021/11/30 04:01:42;;;;;;;1999.90;999.90;;;;;;;;;;5011291;28;20037;-80
2021/11/30 04:04:21;;;;;;;1999.90;999.90;;;;;;;;;;4962292;28;20041;-80
2021/11/30 04:06:48;;;;;;;1999.90;999.90;;;;;;;;;;4982355;28;20065;-80
2021/11/30 04:09:13;;;;;;;1999.90;999.90;;;;;;;;;;4959512;28;20108;-79
2021/11/30 04:11:40;;;;;;;1999.90;999.90;;;;;;;;;;5007802;28;20085;-80
2021/11/30 04:14:06;;;;;;;1999.90;999.90;;;;;;;;;;4991524;28;20030;-80
2021/11/30 04:16:31;;;;;;;1999.90;999.90;;;;;;;;;;4968093;28;20037;-80
2021/11/30 04:18:58;;;;;;;1999.90;999.90;;;;;;;;;;4978408;28;20033;-79
2021/11/30 04:21:24;;;;;;;1999.90;999.90;;;;;;;;;;4979309;28;20034;-80
2021/11/30 04:23:49;;;;;;;1999.90;999.90;;;;;;;;;;4978903;28;20026;-80
2021/11/30 04:26:14;;;;;;;1999.90;999.90;;;;;;;;;;4994393;28;20468;-80
2021/11/30 04:28:41;;;;;;;1999.90;999.90;;;;;;;;;;4978585;28;20030;-80
2021/11/30 04:31:07;;;;;;;1660.80;774.50;;;;;;;;;;4994408;28;20034;-80
2021/11/30 04:33:32;;;;;;;1999.90;999.90;;;;;;;;;;5010542;28;20048;-80
2021/11/30 04:35:58;;;;;;;1999.90;999.90;;;;;;;;;;4994575;28;20054;-80
2021/11/30 04:38:23;;;;;;;1999.90;999.90;;;;;;;;;;4994817;28;20353;-80
2021/11/30 04:40:49;;;;;;;1999.90;999.90;;;;;;;;;;4994280;28;20053;-80
2021/11/30 04:43:14;;;;;;;1999.90;999.90;;;;;;;;;;4978273;28;20034;-80
2021/11/30 04:45:58;;;;;;;1999.90;999.90;;;;;;;;;;5010557;28;20037;-80
2021/11/30 04:48:25;;;;;;;1999.90;999.90;;;;;;;;;;4980321;28;20042;-80
2021/11/30 04:50:52;;;;;;;1999.90;999.90;;;;;;;;;;4979040;28;20034;-80
2021/11/30 04:53:20;;;;;;;1999.90;999.90;;;;;;;;;;4978683;28;20777;-80
2021/11/30 04:55:46;;;;;;;1999.90;999.90;;;;;;;;;;4978486;28;20499;-80
2021/11/30 04:58:11;;;;;;;1999.90;999.90;;;;;;;;;;5010623;28;20034;-80
2021/11/30 05:00:38;;;;;;;1999.90;999.90;;;;;;;;;;4996898;28;20104;-80
2021/11/30 05:03:05;;;;;;;1999.90;999.90;;;;;;;;;;4964531;28;20038;-80
2021/11/30 05:05:31;;;;;;;1999.90;999.90;;;;;;;;;;4997387;28;20038;-79
2021/11/30 05:07:56;;;;;;;1999.90;999.90;;;;;;;;;;4984956;28;20366;-79
2021/11/30 05:10:21;;;;;;;1999.90;999.90;;;;;;;;;;4997408;28;20473;-80
2021/11/30 05:12:47;;;;;;;1999.90;999.90;;;;;;;;;;4997619;28;20034;-79
2021/11/30 05:15:13;;;;;;;1999.90;999.90;;;;;;;;;;4987195;28;20041;-80
2021/11/30 05:17:39;;;;;;;1999.90;999.90;;;;;;;;;;4984238;28;20430;-80
2021/11/30 05:20:05;;;;;;;1999.90;999.90;;;;;;;;;;5000712;28;20034;-80
2021/11/30 05:22:31;;;;;;;1999.90;999.90;;;;;;;;;;4984660;28;20026;-80
2021/11/30 05:24:56;;;;;;;1999.90;999.90;;;;;;;;;;5016789;28;20041;-80
2021/11/30 05:27:22;;;;;;;1999.90;999.90;;;;;;;;;;5017022;28;20037;-80
2021/11/30 05:29:47;;;;;;;1999.90;999.90;;;;;;;;;;4968087;28;20048;-80
2021/11/30 05:32:13;;;;;;;1999.90;999.90;;;;;;;;;;4967707;28;20034;-80
2021/11/30 05:34:38;;;;;;;1999.90;999.90;;;;;;;;;;5000609;28;20514;-80
2021/11/30 05:37:04;;;;;;;1999.90;999.90;;;;;;;;;;5000205;28;20037;-80
2021/11/30 05:39:29;;;;;;;1999.90;999.90;;;;;;;;;;5000515;28;20041;-80
2021/11/30 05:41:55;;;;;;;1999.90;999.90;;;;;;;;;;4968079;28;20048;-80
2021/11/30 05:44:20;;;;;;;1999.90;999.90;;;;;;;;;;5016573;28;20029;-79
2021/11/30 05:46:48;;;;;;;1999.90;999.90;;;;;;;;;;4984138;28;20026;-80
2021/11/30 05:49:13;;;;;;;1999.90;999.90;;;;;;;;;;5000706;28;20034;-80
2021/11/30 05:51:39;;;;;;;1999.90;999.90;;;;;;;;;;4984068;28;20400;-80
2021/11/30 05:54:04;;;;;;;1999.90;999.90;;;;;;;;;;5000214;28;20476;-80
2021/11/30 05:56:30;;;;;;;1999.90;999.90;;;;;;;;;;5000393;28;20052;-80
2021/11/30 05:58:57;;;;;;;1999.90;999.90;;;;;;;;;;4984061;28;20061;-80
2021/11/30 06:01:31;;;;;;;1999.90;999.90;;;;;;;;;;4996362;28;20029;-80
2021/11/30 06:03:58;;;;;;;1999.90;999.90;;;;;;;;;;5009034;28;20535;-81
2021/11/30 06:06:31;;;;;;;1999.90;999.90;;;;;;;;;;4998614;28;20045;-79
2021/11/30 06:08:57;;;;;;;1999.90;999.90;;;;;;;;;;4982814;28;20125;-80
2021/11/30 06:11:22;;;;;;;1999.90;999.90;;;;;;;;;;4962552;28;20059;-79
2021/11/30 06:13:48;;;;;;;1999.90;999.90;;;;;;;;;;4971827;28;20472;-80
2021/11/30 06:16:13;;;;;;;1999.90;999.90;;;;;;;;;;4980326;28;20113;-81
2021/11/30 06:18:38;;;;;;;1999.90;999.90;;;;;;;;;;4980963;28;20030;-80
2021/11/30 06:21:04;;;;;;;1999.90;999.90;;;;;;;;;;5029620;28;20029;-81
2021/11/30 06:23:29;;;;;;;1999.90;999.90;;;;;;;;;;4980773;28;20033;-81
2021/11/30 06:25:55;;;;;;;1999.90;999.90;;;;;;;;;;4996582;28;20403;-81
2021/11/30 06:28:20;;;;;;;1999.90;999.90;;;;;;;;;;4996091;28;20038;-81
2021/11/30 06:30:45;;;;;;;1999.90;999.90;;;;;;;;;;5012426;28;20033;-81
2021/11/30 06:33:11;;;;;;;1999.90;999.90;;;;;;;;;;4974424;28;20061;-81
2021/11/30 06:35:37;;;;;;;1999.90;999.90;;;;;;;;;;5006120;28;20109;-81
2021/11/30 06:38:03;;;;;;;1999.90;999.90;;;;;;;;;;4996609;28;20452;-81
2021/11/30 06:40:28;;;;;;;1999.90;999.90;;;;;;;;;;4980336;28;20038;-81
2021/11/30 06:42:54;;;;;;;1999.90;999.90;;;;;;;;;;4980300;28;20392;-81
2021/11/30 06:45:19;;;;;;;1999.90;999.90;;;;;;;;;;4992976;28;20049;-81
2021/11/30 06:47:44;;;;;;;1999.90;999.90;;;;;;;;;;4994440;28;20152;-81
2021/11/30 06:50:10;;;;;;;1999.90;999.90;;;;;;;;;;4962732;28;20113;-81
2021/11/30 06:52:38;;;;;;;1999.90;999.90;;;;;;;;;;4993354;28;20038;-81
2021/11/30 06:55:04;;;;;;;1999.90;999.90;;;;;;;;;;4995034;28;20026;-82
2021/11/30 06:57:30;;;;;;;1999.90;999.90;;;;;;;;;;4988976;28;20030;-81
2021/11/30 07:00:00;;;;;;;1999.90;999.90;;;;;;;;;;4963255;28;20033;-83
2021/11/30 07:02:25;;;;;;;1027.47;506.92;;;;;;;;;;4964428;28;20404;-83
2021/11/30 07:04:53;;;;;;;1999.90;999.90;;;;;;;;;;4963614;28;20045;-83
2021/11/30 07:07:31;;;;;;;1999.90;999.90;;;;;;;;;;5009246;28;20045;-84
2021/11/30 07:10:21;;;;;;;1999.90;999.90;;;;;;;;;;4996211;28;20049;-84
2021/11/30 07:12:54;;;;;;;1999.90;999.90;;;;;;;;;;4986203;28;20037;-85
2021/11/30 07:15:21;;;;;;;1999.90;999.90;;;;;;;;;;4981261;28;20049;-85
2021/11/30 07:17:47;;;;;;;1999.90;999.90;;;;;;;;;;4962366;28;20034;-84
2021/11/30 07:20:12;;;;;;;1999.90;999.90;;;;;;;;;;4979592;28;20029;-83
2021/11/30 07:22:38;;;;;;;1614.65;760.33;;;;;;;;;;4995015;28;20046;-86
2021/11/30 07:25:04;;;;;;;1999.90;999.90;;;;;;;;;;4979474;28;20040;-85
2021/11/30 07:27:30;;;;;;;1999.90;999.90;;;;;;;;;;4996007;28;20120;-86
2021/11/30 07:29:55;;;;;;;1999.90;999.90;;;;;;;;;;4963040;28;20152;-85
2021/11/30 07:32:20;;;;;;;1999.90;999.90;;;;;;;;;;4963540;28;20038;-86
2021/11/30 07:34:46;;;;;;;1999.90;999.90;;;;;;;;;;4979245;28;20361;-86
2021/11/30 07:37:11;;;;;;;1999.90;999.90;;;;;;;;;;4979389;28;20034;-87
2021/11/30 07:39:37;;;;;;;1999.90;999.90;;;;;;;;;;4979757;28;20025;-86
2021/11/30 07:42:02;;;;;;;1999.90;999.90;;;;;;;;;;4979304;28;20044;-87
2021/11/30 07:44:28;;;;;;;1999.90;999.90;;;;;;;;;;4979769;28;20068;-86
2021/11/30 07:46:54;;;;;;;1999.90;999.90;;;;;;;;;;4964030;28;20034;-87
2021/11/30 07:49:20;;;;;;;1999.90;999.90;;;;;;;;;;4963848;28;20040;-87
2021/11/30 07:51:46;;;;;;;1999.90;999.90;;;;;;;;;;4979745;28;20100;-87
2021/11/30 07:54:11;;;;;;;1999.90;999.90;;;;;;;;;;4995661;28;20053;-86
2021/11/30 07:56:36;;;;;;;1999.90;999.90;;;;;;;;;;4995064;28;20480;-86
2021/11/30 07:59:02;;;;;;;1999.90;999.90;;;;;;;;;;4979468;28;20522;-86
2021/11/30 08:01:27;;;;;;;1999.90;999.90;;;;;;;;;;4995260;28;20041;-85
2021/11/30 08:03:53;;;;;;;1999.90;999.90;;;;;;;;;;4979153;28;20038;-86
2021/11/30 08:06:18;;;;;;;1999.90;999.90;;;;;;;;;;4995309;28;20041;-85
2021/11/30 08:08:45;;;;;;;1999.90;999.90;;;;;;;;;;4975896;28;20030;-86
2021/11/30 08:11:10;;;;;;;1999.90;999.90;;;;;;;;;;4994055;28;20034;-86
2021/11/30 08:13:36;;;;;;;1999.90;999.90;;;;;;;;;;4959787;28;20034;-85
2021/11/30 08:16:01;;;;;;;1145.50;517.63;;;;;;;;;;4976024;28;20388;-86
2021/11/30 08:18:27;;;;;;;1999.90;999.90;;;;;;;;;;4959456;28;20391;-86
2021/11/30 08:20:52;;;;;;;1999.90;999.90;;;;;;;;;;4959764;28;20044;-87
2021/11/30 08:23:18;;;;;;;1999.90;999.90;;;;;;;;;;4959913;28;20080;-87
2021/11/30 08:25:44;;;;;;;1999.90;999.90;;;;;;;;;;4991733;28;20030;-86
2021/11/30 08:28:09;;;;;;;1999.90;999.90;;;;;;;;;;4959574;28;20377;-86
2021/11/30 08:30:35;;;;;;;1999.90;999.90;;;;;;;;;;4975326;28;20034;-85
2021/11/30 08:33:00;;;;;;;1999.90;999.90;;;;;;;;;;4975527;28;20056;-85
2021/11/30 08:35:25;;;;;;;1999.90;999.90;;;;;;;;;;4975127;28;20037;-88
2021/11/30 08:37:51;;;;;;;1999.90;999.90;;;;;;;;;;4959372;28;20044;-86
2021/11/30 08:40:16;;;;;;;1999.90;999.90;;;;;;;;;;4974890;28;20499;-85
2021/11/30 08:42:42;;;;;;;1568.72;755.65;;;;;;;;;;4975374;28;20106;-83
2021/11/30 08:45:08;;;;;;;1159.63;510.75;;;;;;;;;;4991349;28;20057;-85
2021/11/30 08:47:34;;;;;;;1999.90;999.90;;;;;;;;;;4991558;28;20041;-84
2021/11/30 08:49:59;;;;;;;1999.90;999.90;;;;;;;;;;5005080;28;20025;-84
2021/11/30 08:52:28;;;;;;;1999.90;999.90;;;;;;;;;;4995098;28;20077;-85
2021/11/30 08:54:57;;;;;;;1309.38;521.90;;;;;;;;;;4962833;28;20034;-84
2021/11/30 08:57:23;;;;;;;1999.90;999.90;;;;;;;;;;4978123;28;20034;-85
2021/11/30 08:59:49;;;;;;;1999.90;999.90;;;;;;;;;;4962433;28;20044;-85
2021/11/30 09:02:15;;;;;;;1999.90;999.90;;;;;;;;;;4961838;28;20468;-85
2021/11/30 09:04:40;;;;;;;1999.90;999.90;;;;;;;;;;4978584;28;20058;-84
2021/11/30 09:07:05;;;;;;;1999.90;999.90;;;;;;;;;;4962133;28;20022;-85
2021/11/30 09:09:31;;;;;;;1098.97;508.38;;;;;;;;;;5010868;28;20034;-84
2021/11/30 09:11:57;;;;;;;1999.90;999.90;;;;;;;;;;4978093;28;20467;-86
2021/11/30 09:14:22;;;;;;;1729.00;766.45;;;;;;;;;;4978250;28;20030;-84
2021/11/30 09:16:52;;;;;;;1805.35;788.80;;;;;;;;;;4980392;28;20180;-83
2021/11/30 09:19:17;;;;;;;816.58;66.07;;;;;;;;;;4994486;28;20032;-84
2021/11/30 09:21:43;;;;;;;1999.90;999.90;;;;;;;;;;4977944;28;20030;-84
2021/11/30 09:24:08;;;;;;;1999.90;999.90;;;;;;;;;;4978121;28;20037;-83
2021/11/30 09:26:35;;;;;;;1698.30;762.67;;;;;;;;;;4994148;28;20383;-83
2021/11/30 09:29:00;;;;;;;1999.90;999.90;;;;;;;;;;4978261;28;20105;-86
2021/11/30 09:31:28;;;;;;;1706.68;772.53;;;;;;;;;;4978220;28;20065;-90
2021/11/30 09:33:55;;;;;;;1999.90;999.90;;;;;;;;;;4979294;28;20125;-88
2021/11/30 09:36:20;;;;;;;1622.10;766.35;;;;;;;;;;4977174;28;20033;-85
2021/11/30 09:38:46;;;;;;;1999.90;999.90;;;;;;;;;;4993652;28;20026;-85
2021/11/30 09:41:12;;;;;;;1288.18;541.08;;;;;;;;;;4977811;28;20029;-85
2021/11/30 09:43:41;;;;;;;1786.90;767.47;;;;;;;;;;4974651;28;20035;-85
2021/11/30 09:46:07;;;;;;;1082.53;123.55;;;;;;;;;;4990742;28;20030;-85
2021/11/30 09:48:34;;;;;;;597.05;54.80;;;;;;;;;;4961530;28;20377;-86
2021/11/30 09:51:00;;;;;;;1220.28;120.85;;;;;;;;;;4997019;28;20029;-87
2021/11/30 09:53:26;;;;;;;1999.90;999.90;;;;;;;;;;5017193;28;20083;-86
2021/11/30 09:55:51;;;;;;;1999.90;999.90;;;;;;;;;;5033800;28;20021;-85
2021/11/30 09:58:19;;;;;;;1999.90;999.90;;;;;;;;;;5017035;28;20049;-86
2021/11/30 10:00:46;;;;;;;1219.20;155.68;;;;;;;;;;5017086;28;20555;-86
2021/11/30 10:03:11;;;;;;;1999.90;999.90;;;;;;;;;;4994394;28;20535;-86
2021/11/30 10:05:37;;;;;;;1999.90;999.90;;;;;;;;;;4961924;28;20030;-85
2021/11/30 10:08:02;;;;;;;1684.70;772.08;;;;;;;;;;4965942;28;20751;-86
2021/11/30 10:10:30;;;;;;;1999.90;999.90;;;;;;;;;;5001732;28;20109;-86
2021/11/30 10:12:59;;;;;;;885.85;64.85;;;;;;;;;;4965018;28;20034;-85
2021/11/30 10:15:24;;;;;;;1999.90;999.90;;;;;;;;;;4996963;28;20022;-83
2021/11/30 10:17:50;;;;;;;1999.90;999.90;;;;;;;;;;4981165;28;20387;-87
2021/11/30 10:20:16;;;;;;;964.80;138.07;;;;;;;;;;4980940;28;20037;-85
2021/11/30 10:22:51;;;;;;;1999.90;999.90;;;;;;;;;;4965187;28;20030;-86
2021/11/30 10:25:29;;;;;;;1999.90;999.90;;;;;;;;;;4965568;28;20396;-86
2021/11/30 10:27:59;;;;;;;1999.90;999.90;;;;;;;;;;4998096;28;20112;-85
2021/11/30 10:30:31;;;;;;;1999.90;999.90;;;;;;;;;;4963861;28;20028;-84
2021/11/30 10:32:58;;;;;;;1491.10;540.22;;;;;;;;;;4964448;28;20034;-84
2021/11/30 10:35:25;;;;;;;1620.70;765.60;;;;;;;;;;4996227;28;20032;-84
2021/11/30 10:37:50;;;;;;;1999.90;999.90;;;;;;;;;;4963900;28;20433;-84
2021/11/30 10:40:26;;;;;;;1647.25;759.33;;;;;;;;;;4963743;28;20025;-84
2021/11/30 10:43:00;;;;;;;1525.55;550.90;;;;;;;;;;4985739;28;20448;-82
2021/11/30 10:45:26;;;;;;;1999.90;999.90;;;;;;;;;;4979960;28;20507;-84
2021/11/30 10:47:51;;;;;;;1999.90;999.90;;;;;;;;;;4996422;28;20033;-83
2021/11/30 10:50:22;;;;;;;1999.90;999.90;;;;;;;;;;5006784;28;20080;-82
2021/11/30 10:52:49;;;;;;;1619.32;760.20;;;;;;;;;;5013126;28;20151;-83
2021/11/30 10:55:16;;;;;;;1999.90;999.90;;;;;;;;;;4996824;28;20030;-82
2021/11/30 10:57:47;;;;;;;1999.90;999.90;;;;;;;;;;4980154;28;20365;-83
2021/11/30 11:00:26;;;;;;;1999.90;999.90;;;;;;;;;;4996318;28;20026;-83
2021/11/30 11:05:32;;;;;;;758.10;142.65;;;;;;;;;;4994374;28;20038;-84
2021/11/30 11:08:08;;;;;;;1999.90;999.90;;;;;;;;;;4985550;28;20026;-83
2021/11/30 11:10:34;;;;;;;1999.90;999.90;;;;;;;;;;4992978;28;20042;-84
2021/11/30 11:13:26;;;;;;;1999.90;999.90;;;;;;;;;;4992663;28;20058;-83
2021/11/30 11:15:59;;;;;;;1999.90;999.90;;;;;;;;;;4976603;28;20022;-84
2021/11/30 11:18:26;;;;;;;1677.93;767.40;;;;;;;;;;4992818;28;20058;-84
2021/11/30 11:21:08;;;;;;;1999.90;999.90;;;;;;;;;;4992251;28;20058;-83
2021/11/30 11:23:33;;;;;;;1999.90;999.90;;;;;;;;;;4993112;28;20053;-83
2021/11/30 11:25:59;;;;;;;1999.90;999.90;;;;;;;;;;4992631;28;20374;-83
2021/11/30 11:28:24;;;;;;;1794.22;767.92;;;;;;;;;;5008693;28;20030;-83
2021/11/30 11:30:50;;;;;;;1999.90;999.90;;;;;;;;;;4992569;28;20033;-83
2021/11/30 11:33:16;;;;;;;710.00;56.67;;;;;;;;;;4991850;28;20038;-83
2021/11/30 11:35:41;;;;;;;1999.90;999.90;;;;;;;;;;4976200;28;20400;-83
2021/11/30 11:38:08;;;;;;;1438.10;536.78;;;;;;;;;;4991948;28;20034;-84
2021/11/30 11:40:34;;;;;;;1999.90;999.90;;;;;;;;;;4992276;28;20089;-83
2021/11/30 11:43:01;;;;;;;1999.90;999.90;;;;;;;;;;5002756;28;20428;-83
2021/11/30 11:45:26;;;;;;;1753.15;770.10;;;;;;;;;;4975978;28;20018;-83
2021/11/30 11:47:52;;;;;;;1999.90;999.90;;;;;;;;;;4959645;28;20057;-83
2021/11/30 11:50:17;;;;;;;1440.72;552.67;;;;;;;;;;5004294;28;20033;-83
2021/11/30 11:52:43;;;;;;;1999.90;999.90;;;;;;;;;;5031662;28;20033;-84
2021/11/30 11:55:16;;;;;;;1999.90;999.90;;;;;;;;;;5015073;28;20365;-83
2021/11/30 11:58:02;;;;;;;1688.82;761.83;;;;;;;;;;5014968;28;20036;-83
2021/11/30 12:00:32;;;;;;;1999.90;999.90;;;;;;;;;;5014875;28;20037;-83
2021/11/30 12:02:59;;;;;;;1999.90;999.90;;;;;;;;;;4993800;28;20034;-84
2021/11/30 12:05:41;;;;;;;1999.90;999.90;;;;;;;;;;4975890;28;20034;-82
2021/11/30 12:08:19;;;;;;;1999.90;999.90;;;;;;;;;;5013707;28;20069;-84
2021/11/30 12:10:44;;;;;;;1999.90;999.90;;;;;;;;;;4958753;28;20026;-82
2021/11/30 12:13:12;;;;;;;1999.90;999.90;;;;;;;;;;4959767;28;20462;-84
2021/11/30 12:16:01;;;;;;;1752.25;766.75;;;;;;;;;;4991769;28;20037;-83
2021/11/30 12:18:43;;;;;;;1094.20;507.95;;;;;;;;;;4991505;28;20057;-83
2021/11/30 12:21:22;;;;;;;;;;;;;;;;;;4960895;28;20406;-83
2021/11/30 12:23:49;;;;;;;1999.90;999.90;;;;;;;;;;4991851;28;19906;-82
2021/11/30 12:26:30;;;;;;;1999.90;999.90;;;;;;;;;;4959413;28;20121;-83
2021/11/30 12:28:56;;;;;;;1999.90;999.90;;;;;;;;;;4992525;28;20034;-84
2021/11/30 12:31:35;;;;;;;1999.90;999.90;;;;;;;;;;4958987;28;20026;-83
2021/11/30 12:34:01;;;;;;;1999.90;999.90;;;;;;;;;;4959970;28;20027;-82
2021/11/30 12:36:36;;;;;;;1626.40;757.45;;;;;;;;;;4959146;28;20405;-83
2021/11/30 12:39:02;;;;;;;1999.90;999.90;;;;;;;;;;4960025;28;20030;-83
2021/11/30 12:41:28;;;;;;;1999.90;999.90;;;;;;;;;;4975461;28;20516;-83
2021/11/30 12:43:55;;;;;;;1791.85;779.15;;;;;;;;;;4991626;28;20061;-83
2021/11/30 12:46:31;;;;;;;1999.90;999.90;;;;;;;;;;4994305;28;20447;-83
2021/11/30 12:48:57;;;;;;;1999.90;999.90;;;;;;;;;;4978863;28;20026;-83
2021/11/30 12:51:34;;;;;;;1999.90;999.90;;;;;;;;;;5012337;28;20047;-84
2021/11/30 12:54:00;;;;;;;1999.90;999.90;;;;;;;;;;4998069;28;20087;-83
2021/11/30 12:56:55;;;;;;;1716.70;764.60;;;;;;;;;;5013988;28;20068;-83
2021/11/30 12:59:39;;;;;;;1999.90;999.90;;;;;;;;;;5000743;28;20033;-84
2021/11/30 13:02:25;;;;;;;1999.90;999.90;;;;;;;;;;5003287;28;20030;-84
2021/11/30 13:05:09;;;;;;;1999.90;999.90;;;;;;;;;;5010586;28;20080;-84
2021/11/30 13:07:36;;;;;;;1999.90;999.90;;;;;;;;;;4993021;28;20027;-83
2021/11/30 13:10:05;;;;;;;1999.90;999.90;;;;;;;;;;4974807;28;20035;-83
2021/11/30 13:12:31;;;;;;;1999.90;999.90;;;;;;;;;;4975589;28;20077;-83
2021/11/30 13:14:57;;;;;;;1999.90;999.90;;;;;;;;;;4974217;28;20022;-83
2021/11/30 13:17:35;;;;;;;1999.90;999.90;;;;;;;;;;4974699;28;20038;-83
2021/11/30 13:20:08;;;;;;;1999.90;999.90;;;;;;;;;;4975474;28;20084;-83
2021/11/30 13:23:00;;;;;;;1735.25;771.00;;;;;;;;;;4978763;28;20075;-83
2021/11/30 13:25:29;;;;;;;1999.90;999.90;;;;;;;;;;4976489;28;20126;-83
2021/11/30 13:27:56;;;;;;;948.63;81.97;;;;;;;;;;4962680;28;20158;-83
2021/11/30 13:30:23;;;;;;;1999.90;999.90;;;;;;;;;;4978255;28;20042;-83
2021/11/30 13:32:53;;;;;;;1231.28;514.20;;;;;;;;;;4962712;28;20570;-84
2021/11/30 13:35:20;;;;;;;1714.78;778.92;;;;;;;;;;4962609;28;20538;-82
2021/11/30 13:37:52;;;;;;;1999.90;999.90;;;;;;;;;;4962317;28;20026;-83
2021/11/30 13:40:46;;;;;;;1999.90;999.90;;;;;;;;;;4994173;28;20061;-83
2021/11/30 13:43:14;;;;;;;1514.70;217.43;;;;;;;;;;5002363;28;20027;-83
2021/11/30 13:45:48;;;;;;;781.35;51.90;;;;;;;;;;4994471;28;20053;-83
2021/11/30 13:48:37;;;;;;;1872.88;795.97;;;;;;;;;;4994678;28;20038;-83
2021/11/30 13:51:08;;;;;;;1677.30;769.25;;;;;;;;;;4998229;28;20042;-83